ADDS METAR Data INFO
IDs: Format: Raw Decoded Include TAF

Data at: 0329 UTC 16 Dec 2017

KJSO 160315Z AUTO 26003KT 10SM CLR 07/M01 A3026 RMK AO2 T00711018
KJSO 160255Z AUTO 28004KT 10SM CLR 07/M02 A3026 RMK AO2 T00801020
KJSO 160235Z AUTO 29004KT 10SM CLR 07/M01 A3026 RMK AO2 T00801016
KJSO 160215Z AUTO 27003KT 10SM CLR 08/M01 A3026 RMK AO2 T00821016
KJSO 160155Z AUTO 27004KT 10SM CLR 08/M01 A3026 RMK AO2 T00851015
KJSO 160135Z AUTO 00000KT 10SM CLR 08/M01 A3026 RMK AO2 T00851016
KJSO 160115Z AUTO 28003KT 10SM CLR 08/M01 A3026 RMK AO2 T00871017
KJSO 160055Z AUTO 00000KT 10SM CLR 08/M02 A3026 RMK AO2 T00891020
KJSO 160035Z AUTO 00000KT 10SM CLR 08/M02 A3026 RMK AO2 T00901020
KJSO 160015Z AUTO 00000KT 10SM CLR 08/M01 A3025 RMK AO2 T00911016
KJSO 152355Z AUTO 27003KT 10SM CLR 09/M01 A3025 RMK AO2 T00941015
KJSO 152335Z AUTO 00000KT 10SM CLR 10/M01 A3023 RMK AO2 T00971010
KJSO 152315Z AUTO 00000KT 10SM CLR 10/M01 A3022 RMK AO2 T01061011
KJSO 152255Z AUTO 00000KT 10SM CLR 11/M01 A3022 RMK AO2 T01151014
KJSO 152235Z AUTO 31003KT 10SM CLR 12/M01 A3022 RMK AO2 T01201014
KJSO 152215Z AUTO 32005KT 10SM CLR 12/M01 A3023 RMK AO2 T01211016
KJSO 152155Z AUTO 27004KT 10SM CLR 12/M01 A3023 RMK AO2 T01271012
KJSO 152135Z AUTO 00000KT 10SM CLR 12/M01 A3023 RMK AO2 T01271011
KJSO 152115Z AUTO 32005KT 10SM CLR 12/M01 A3023 RMK AO2 T01271011
KJSO 152055Z AUTO 34004KT 10SM CLR 13/00 A3024 RMK AO2 T01301007
KJSO 152035Z AUTO 34004KT 10SM CLR 12/00 A3024 RMK AO2 T01281008
KJSO 152015Z AUTO 30007KT 10SM CLR 12/00 A3024 RMK AO2 T01261006
KJSO 151955Z AUTO 28008KT 10SM CLR 12/M01 A3025 RMK AO2 T01221008
KJSO 151935Z AUTO 27006KT 10SM CLR 12/00 A3026 RMK AO2 T01211005
KJSO 151915Z AUTO 27005KT 10SM CLR 11/00 A3027 RMK AO2 T01151005
KJSO 151855Z AUTO 24005KT 10SM CLR 11/00 A3028 RMK AO2 T01131003
KJSO 151835Z AUTO 29005KT 10SM CLR 11/00 A3028 RMK AO2 T01091001
KJSO 151815Z AUTO 00000KT 10SM CLR 10/00 A3031 RMK AO2 T00980000
KJSO 151755Z AUTO 00000KT 10SM CLR 08/00 A3032 RMK AO2 T00891005
KJSO 151735Z AUTO 00000KT 10SM CLR 08/00 A3032 RMK AO2 T00841005
KJSO 151715Z AUTO 00000KT 10SM CLR 07/00 A3032 RMK AO2 T00791006
KJSO 151655Z AUTO 00000KT 10SM CLR 07/00 A3032 RMK AO2 T00801006
KJSO 151635Z AUTO 00000KT 10SM CLR 07/00 A3033 RMK AO2 T00751007
KJSO 151615Z AUTO 00000KT 10SM CLR 06/M01 A3033 RMK AO2 T00621011
KJSO 151555Z AUTO 00000KT 10SM CLR 05/M01 A3031 RMK AO2 T00551008
KJSO 151535Z AUTO 01003KT 10SM CLR 05/00 A3031 RMK AO2 T00501006
KJSO 151515Z AUTO 01004KT 10SM CLR 04/M01 A3030 RMK AO2 T00461010
KJSO 151455Z AUTO 02003KT 10SM CLR 04/M01 A3030 RMK AO2 T00461010
KJSO 151435Z AUTO 00000KT 10SM CLR 04/M01 A3029 RMK AO2 T00441012
KJSO 151355Z AUTO 36004KT 10SM CLR 03/M01 A3027 RMK AO2 T00401011
KJSO 151335Z AUTO 00000KT 10SM CLR 03/M01 A3027 RMK AO2 T00371012
KJSO 151315Z AUTO 35004KT 10SM CLR 03/M01 A3026 RMK AO2 T00381012
KJSO 151255Z AUTO 36004KT 10SM CLR 03/M01 A3026 RMK AO2 T00401013
KJSO 151235Z AUTO 35004KT 10SM CLR 03/M01 A3026 RMK AO2 T00411012
KJSO 151215Z AUTO 36003KT 10SM CLR 03/M01 A3025 RMK AO2 T00411012
KJSO 151155Z AUTO 35003KT 10SM CLR 04/M01 A3025 RMK AO2 T00421013
KJSO 151135Z AUTO 36004KT 10SM CLR 04/M01 A3024 RMK AO2 T00451015
KJSO 151115Z AUTO 36003KT 10SM CLR 04/M01 A3025 RMK AO2 T00451015
KJSO 151055Z AUTO 36004KT 10SM CLR 04/M01 A3024 RMK AO2 T00451015
KJSO 151035Z AUTO 36005KT 10SM CLR 04/M01 A3024 RMK AO2 T00451015
KJSO 151015Z AUTO 36005KT 10SM CLR 04/M01 A3022 RMK AO2 T00451015
KJSO 150955Z AUTO 01003KT 10SM CLR 04/M01 A3022 RMK AO2 T00461015
KJSO 150935Z AUTO 01004KT 10SM CLR 05/M01 A3021 RMK AO2 T00481015
KJSO 150915Z AUTO 02004KT 10SM CLR 05/M01 A3022 RMK AO2 T00501015
KJSO 150855Z AUTO 02003KT 10SM CLR 05/M01 A3021 RMK AO2 T00521016
KJSO 150835Z AUTO 03005KT 10SM CLR 05/M01 A3021 RMK AO2 T00551016
KJSO 150815Z AUTO 01005KT 10SM CLR 05/M01 A3021 RMK AO2 T00561016
KJSO 150755Z AUTO 01006KT 10SM CLR 06/M01 A3020 RMK AO2 T00591017
KJSO 150735Z AUTO 02005KT 10SM CLR 06/M01 A3019 RMK AO2 T00611017
KJSO 150715Z AUTO 01006KT 10SM CLR 06/M01 A3019 RMK AO2 T00621016
KJSO 150655Z AUTO 01007KT 10SM CLR 06/M01 A3020 RMK AO2 T00661017
KJSO 150635Z AUTO 02007KT 10SM CLR 06/M01 A3019 RMK AO2 T00681017
KJSO 150615Z AUTO 01005KT 10SM CLR 07/M01 A3019 RMK AO2 T00701015
KJSO 150555Z AUTO 02005KT 10SM CLR 07/M01 A3018 RMK AO2 T00721013
KJSO 150535Z AUTO 36006KT 10SM CLR 07/M01 A3018 RMK AO2 T00751012
KJSO 150515Z AUTO 36005KT 10SM CLR 07/M01 A3018 RMK AO2 T00781013
KJSO 150455Z AUTO 36005KT 10SM CLR 08/M01 A3017 RMK AO2 T00811012
KJSO 150435Z AUTO 35005KT 10SM CLR 08/M01 A3017 RMK AO2 T00831011
KJSO 150415Z AUTO 36004KT 10SM CLR 08/M01 A3016 RMK AO2 T00871011
KJSO 150355Z AUTO 35005KT 10SM CLR 08/M01 A3016 RMK AO2 T00901010
KJSO 150335Z AUTO 35003KT 10SM CLR 09/M01 A3014 RMK AO2 T00921010
KJSO 150315Z AUTO 36006KT 10SM CLR 10/M01 A3014 RMK AO2 T00981009
KJSO 150255Z AUTO 36006KT 10SM CLR 10/00 A3013 RMK AO2 T01011007
KJSO 150235Z AUTO 35007KT 10SM CLR 10/00 A3012 RMK AO2 T01011003
KJSO 150215Z AUTO 36004KT 10SM CLR 10/00 A3012 RMK AO2 T01050000
KJSO 150155Z AUTO 35004KT 10SM CLR 10/00 A3011 RMK AO2 T01070005
KJSO 150135Z AUTO 36004KT 10SM CLR 10/01 A3009 RMK AO2 T01080010
KJSO 150115Z AUTO 33003KT 10SM CLR 11/01 A3008 RMK AO2 T01130012
KJSO 150055Z AUTO 35003KT 10SM CLR 12/01 A3007 RMK AO2 T01200011
KJSO 150035Z AUTO 35003KT 10SM CLR 12/01 A3006 RMK AO2 T01230011
KJSO 150015Z AUTO 01003KT 10SM CLR 12/01 A3005 RMK AO2 T01250009
KJSO 142355Z AUTO 02003KT 10SM CLR 12/01 A3004 RMK AO2 T01270008
KJSO 142335Z AUTO 01003KT 10SM CLR 12/01 A3004 RMK AO2 T01300010
KJSO 142315Z AUTO 01003KT 10SM CLR 13/01 A3003 RMK AO2 T01330011
KJSO 142255Z AUTO 01003KT 10SM CLR 13/01 A3003 RMK AO2 T01390009
KJSO 142235Z AUTO 01005KT 10SM CLR 14/01 A3001 RMK AO2 T01420010
KJSO 142215Z AUTO 36004KT 10SM CLR 14/01 A3001 RMK AO2 T01460011
KJSO 142155Z AUTO 01003KT 10SM CLR 15/01 A3000 RMK AO2 T01500010
KJSO 142135Z AUTO 04004KT 10SM CLR 15/01 A3000 RMK AO2 T01510008
KJSO 142115Z AUTO 02005KT 10SM CLR 15/00 A2999 RMK AO2 T01500007
KJSO 142055Z AUTO 03007KT 10SM CLR 15/01 A2998 RMK AO2 T01500009
KJSO 142035Z AUTO 01006KT 10SM CLR 14/01 A2998 RMK AO2 T01460017
KJSO 142015Z AUTO 36004KT 10SM CLR 15/02 A2997 RMK AO2 T01480020
KJSO 141955Z AUTO 03006KT 350V050 10SM CLR 15/01 A2997 RMK AO2 T01520019
KJSO 141935Z AUTO 02006KT 10SM CLR 16/02 A2997 RMK AO2 T01590025
KJSO 141915Z AUTO 04006KT 10SM CLR 15/02 A2999 RMK AO2 T01520029
KJSO 141855Z AUTO 06008KT 10SM CLR 14/02 A3000 RMK AO2 T01430027
KJSO 141835Z AUTO 03005KT 10SM CLR 13/02 A3001 RMK AO2 T01380027
KJSO 141815Z AUTO 05005KT 10SM CLR 13/02 A3002 RMK AO2 T01380030
KJSO 141755Z AUTO 02007KT 10SM CLR 13/03 A3001 RMK AO2 T01310034
KJSO 141735Z AUTO 02007KT 10SM CLR 12/03 A3002 RMK AO2 T01200032
KJSO 141715Z AUTO 04007KT 10SM CLR 12/02 A3002 RMK AO2 T01220029
KJSO 141655Z AUTO 03008KT 10SM CLR 11/02 A3003 RMK AO2 T01150028
KJSO 141635Z AUTO 03005KT 10SM CLR 11/02 A3003 RMK AO2 T01100030
KJSO 141615Z AUTO 36004KT 10SM CLR 10/03 A3003 RMK AO2 T01060031
KJSO 141555Z AUTO 35003KT 10SM CLR 10/02 A3002 RMK AO2 T01020030
KJSO 141535Z AUTO 00000KT 10SM CLR 09/03 A3001 RMK AO2 T00930033